Time;durP1;ratioP1;P1;durP2;ratioP2;P2;SDS_P1;SDS_P2;PMS_P1;PMS_P2;Temp;Humidity;BMP_temperature;BMP_pressure;BME280_temperature;BME280_humidity;BME280_pressure;Samples;Min_cycle;Max_cycle;Signal;HPM_P1;HPM_P2
2022/07/27 00:00:43;;;;;;;7.60;5.97;;;;;;;23.99;nan;100101.78;5013691;28;20117;-72
2022/07/27 00:03:09;;;;;;;9.18;6.30;;;;;;;23.96;nan;100097.03;5008408;28;20067;-71
2022/07/27 00:05:34;;;;;;;11.27;6.93;;;;;;;23.97;nan;100112.06;5007638;28;20067;-71
2022/07/27 00:08:00;;;;;;;14.07;8.07;;;;;;;23.93;nan;100097.66;5005871;28;20030;-71
2022/07/27 00:10:25;;;;;;;11.27;7.75;;;;;;;23.86;nan;100083.94;5007974;28;20080;-72
2022/07/27 00:12:50;;;;;;;12.60;7.65;;;;;;;23.82;nan;100095.66;5014981;28;20042;-69
2022/07/27 00:15:16;;;;;;;9.60;6.85;;;;;;;23.75;nan;100091.56;5005511;28;20026;-73
2022/07/27 00:17:42;;;;;;;11.18;7.03;;;;;;;23.74;nan;100083.81;5005606;28;20038;-69
2022/07/27 00:20:08;;;;;;;11.98;7.13;;;;;;;23.75;nan;100106.88;5005030;28;20041;-70
2022/07/27 00:22:33;;;;;;;11.73;6.35;;;;;;;23.73;nan;100133.31;5004841;28;20070;-71
2022/07/27 00:24:59;;;;;;;7.95;6.28;;;;;;;23.66;nan;100124.94;5004089;28;20038;-72
2022/07/27 00:27:24;;;;;;;10.27;6.72;;;;;;;23.67;nan;100103.09;5008599;28;20511;-70
2022/07/27 00:29:50;;;;;;;9.85;6.63;;;;;;;23.59;nan;100093.16;5010324;28;20129;-67
2022/07/27 00:32:15;;;;;;;8.20;6.65;;;;;;;23.65;nan;100108.00;5010338;28;20503;-66
2022/07/27 00:34:41;;;;;;;9.98;7.25;;;;;;;23.62;nan;100124.78;5007751;28;20124;-68
2022/07/27 00:37:06;;;;;;;17.13;7.65;;;;;;;23.57;nan;100071.19;5011955;28;20092;-66
2022/07/27 00:39:32;;;;;;;9.65;6.57;;;;;;;23.56;nan;100089.22;5012697;28;20033;-67
2022/07/27 00:41:57;;;;;;;9.07;6.95;;;;;;;23.54;nan;100122.91;5007368;28;20484;-66
2022/07/27 00:44:30;;;;;;;11.48;7.72;;;;;;;;;;5005424;28;20045;-66
2022/07/27 00:46:55;;;;;;;10.85;8.15;;;;;;;23.38;nan;100162.91;5007914;28;20073;-67
2022/07/27 00:49:22;;;;;;;9.98;8.13;;;;;;;23.40;nan;100061.25;5008242;28;20104;-66
2022/07/27 00:51:48;;;;;;;16.88;8.40;;;;;;;23.40;nan;100124.97;5009114;28;20511;-71
2022/07/27 00:54:15;;;;;;;10.82;7.72;;;;;;;23.36;nan;100122.09;5006293;28;20049;-71
2022/07/27 00:56:41;;;;;;;11.95;7.85;;;;;;;23.35;nan;100120.53;5007510;28;20030;-70
2022/07/27 00:59:09;;;;;;;9.27;8.00;;;;;;;23.31;nan;100095.41;5025996;28;20045;-71
2022/07/27 01:01:34;;;;;;;13.23;8.23;;;;;;;23.24;nan;100078.97;5009251;28;20065;-71
2022/07/27 01:04:00;;;;;;;12.80;8.85;;;;;;;23.26;nan;100127.81;5004415;28;20038;-71
2022/07/27 01:06:25;;;;;;;13.65;8.40;;;;;;;23.23;nan;100129.25;5008239;28;20041;-67
2022/07/27 01:08:51;;;;;;;11.07;8.73;;;;;;;23.10;nan;100152.44;5003106;28;20381;-67
2022/07/27 01:11:17;;;;;;;13.60;8.85;;;;;;;23.11;nan;100116.44;5009252;28;20590;-67
2022/07/27 01:13:43;;;;;;;12.68;8.35;;;;;;;23.04;nan;100152.94;5010463;28;20034;-67
2022/07/27 01:16:08;;;;;;;11.23;9.10;;;;;;;23.08;nan;100108.19;5009023;28;20391;-67
2022/07/27 01:18:36;;;;;;;13.55;9.55;;;;;;;22.99;nan;100129.69;5010384;28;20148;-67
2022/07/27 01:21:05;;;;;;;13.43;9.70;;;;;;;22.98;nan;100106.63;5006545;28;20053;-67
2022/07/27 01:23:33;;;;;;;13.98;10.68;;;;;;;;;;5004576;28;20042;-67
2022/07/27 01:26:00;;;;;;;14.80;10.05;;;;;;;22.53;nan;100077.34;5009663;28;20050;-67
2022/07/27 01:28:26;;;;;;;13.20;9.77;;;;;;;22.27;nan;100163.09;5007796;28;20038;-67
2022/07/27 01:30:54;;;;;;;15.90;9.95;;;;;;;22.39;nan;100123.06;5007916;28;20038;-67
2022/07/27 01:33:24;;;;;;;17.50;10.50;;;;;;;22.41;nan;100094.03;5005955;28;20034;-67
2022/07/27 01:35:52;;;;;;;14.63;10.63;;;;;;;22.40;nan;100116.59;5007405;28;20069;-67
2022/07/27 01:38:17;;;;;;;13.90;11.40;;;;;;;22.33;nan;100112.78;5005952;28;20029;-67
2022/07/27 01:40:42;;;;;;;15.98;10.75;;;;;;;22.29;nan;100102.69;5008157;28;20053;-67
2022/07/27 01:43:08;;;;;;;15.80;10.98;;;;;;;22.29;nan;100064.31;5005617;28;20033;-67
2022/07/27 01:45:33;;;;;;;14.30;10.85;;;;;;;22.22;nan;100055.94;5006738;28;20038;-66
2022/07/27 01:47:59;;;;;;;15.60;10.77;;;;;;;22.14;nan;100129.88;5002596;28;20029;-71
2022/07/27 01:50:24;;;;;;;13.90;10.70;;;;;;;22.12;nan;100128.59;5008182;28;20410;-71
2022/07/27 01:52:50;;;;;;;13.93;10.48;;;;;;;22.17;nan;100129.28;5009210;28;20033;-71
2022/07/27 01:55:15;;;;;;;16.77;11.73;;;;;;;22.03;nan;100086.47;5003365;28;20042;-71
2022/07/27 01:57:40;;;;;;;13.80;10.85;;;;;;;21.83;nan;100101.16;5007510;28;20522;-70
2022/07/27 02:00:10;;;;;;;21.38;11.57;;;;;;;21.81;nan;100110.63;5008726;28;20034;-71
2022/07/27 02:02:36;;;;;;;15.00;12.27;;;;;;;21.74;nan;100111.06;5004389;28;20034;-71
2022/07/27 02:05:01;;;;;;;14.27;12.07;;;;;;;21.75;nan;100122.59;5007995;28;20036;-71
2022/07/27 02:07:26;;;;;;;14.73;12.00;;;;;;;;;;5006703;28;20030;-71
2022/07/27 02:09:52;;;;;;;14.23;11.87;;;;;;;21.65;nan;100129.78;5008354;28;20120;-71
2022/07/27 02:12:35;;;;;;;16.67;12.10;;;;;;;21.70;nan;100126.19;5005639;28;20038;-72
2022/07/27 02:15:07;;;;;;;15.82;12.65;;;;;;;21.57;nan;100124.34;5008435;28;20034;-71
2022/07/27 02:17:32;;;;;;;19.27;12.43;;;;;;;21.54;nan;100128.44;5009337;28;20121;-71
2022/07/27 02:19:58;;;;;;;17.00;13.55;;;;;;;21.55;nan;100126.53;5007865;28;20188;-71
2022/07/27 02:22:23;;;;;;;20.95;13.77;;;;;;;21.31;nan;100118.75;5002914;28;20062;-71
2022/07/27 02:24:49;;;;;;;17.17;13.45;;;;;;;21.39;nan;100120.75;5008365;28;20078;-71
2022/07/27 02:27:14;;;;;;;20.80;14.57;;;;;;;21.31;nan;100143.69;5007487;28;20036;-71
2022/07/27 02:29:40;;;;;;;18.50;13.77;;;;;;;21.28;nan;100138.13;5009122;28;20507;-70
2022/07/27 02:32:06;;;;;;;19.90;14.75;;;;;;;21.21;nan;100138.53;5006734;28;20038;-71
2022/07/27 02:34:31;;;;;;;19.95;14.27;;;;;;;21.22;nan;100140.94;5006620;28;20119;-70
2022/07/27 02:36:56;;;;;;;18.88;13.48;;;;;;;21.16;nan;100184.19;5007603;28;21732;-71
2022/07/27 02:39:22;;;;;;;19.95;15.30;;;;;;;21.11;nan;100189.66;5009282;28;20115;-71
2022/07/27 02:41:48;;;;;;;16.35;13.48;;;;;;;;;;5001949;28;20475;-71
2022/07/27 02:44:14;;;;;;;20.30;14.43;;;;;;;21.09;nan;100124.91;5007886;28;20041;-70
2022/07/27 02:46:42;;;;;;;19.55;15.38;;;;;;;21.09;nan;100168.50;5001517;28;20121;-71
2022/07/27 02:49:08;;;;;;;21.67;14.60;;;;;;;21.08;nan;100145.53;5006382;28;20038;-71
2022/07/27 02:51:33;;;;;;;17.95;15.32;;;;;;;20.97;nan;100126.22;5006955;28;20500;-71
2022/07/27 02:53:59;;;;;;;21.10;13.73;;;;;;;21.03;nan;100142.97;5005863;28;20066;-71
2022/07/27 02:56:25;;;;;;;17.63;14.90;;;;;;;21.06;nan;100152.28;5008074;28;20048;-71
2022/07/27 02:58:50;;;;;;;21.48;15.35;;;;;;;21.09;nan;100146.31;5008838;28;20517;-72
2022/07/27 03:01:15;;;;;;;21.35;15.57;;;;;;;21.02;nan;100125.31;5006141;28;20129;-71
2022/07/27 03:03:41;;;;;;;18.88;14.27;;;;;;;21.02;nan;100096.66;5008454;28;20041;-71
2022/07/27 03:06:07;;;;;;;17.85;14.90;;;;;;;21.09;nan;100152.44;5007862;28;20062;-69
2022/07/27 03:08:34;;;;;;;20.13;15.57;;;;;;;21.01;nan;100108.44;5006157;28;20034;-72
2022/07/27 03:11:00;;;;;;;21.15;15.15;;;;;;;21.02;nan;100162.78;5008922;28;20037;-70
2022/07/27 03:13:26;;;;;;;19.23;15.90;;;;;;;20.91;nan;100151.50;5007152;28;20450;-70
2022/07/27 03:15:52;;;;;;;20.90;15.52;;;;;;;20.79;nan;100146.66;5008376;28;20196;-70
2022/07/27 03:18:17;;;;;;;21.30;15.85;;;;;;;20.80;nan;100134.06;5003228;28;20113;-70
2022/07/27 03:20:42;;;;;;;20.80;15.32;;;;;;;20.92;nan;100158.44;5008664;28;20041;-70
2022/07/27 03:23:08;;;;;;;25.05;15.40;;;;;;;20.89;nan;100217.13;5008004;28;20030;-71
2022/07/27 03:25:33;;;;;;;23.42;15.88;;;;;;;20.82;nan;100146.06;5005760;28;20041;-70
2022/07/27 03:27:59;;;;;;;22.33;16.02;;;;;;;20.86;nan;100153.50;5002460;28;20068;-71
2022/07/27 03:30:24;;;;;;;19.85;15.57;;;;;;;20.69;nan;100162.16;5008522;28;20077;-71
2022/07/27 03:32:50;;;;;;;23.13;16.73;;;;;;;20.73;nan;100173.81;5007998;28;20040;-70
2022/07/27 03:35:15;;;;;;;20.05;15.65;;;;;;;20.61;nan;100177.00;5007917;28;20033;-71
2022/07/27 03:37:41;;;;;;;23.83;16.67;;;;;;;20.52;nan;100176.06;5010480;28;20518;-70
2022/07/27 03:40:08;;;;;;;24.05;16.15;;;;;;;20.51;nan;100177.94;5013237;28;20192;-70
2022/07/27 03:42:33;;;;;;;21.50;15.80;;;;;;;20.64;nan;100191.66;5024474;28;20038;-71
2022/07/27 03:44:59;;;;;;;25.52;16.65;;;;;;;20.65;nan;100161.94;5010524;28;20030;-70
2022/07/27 03:47:24;;;;;;;26.23;17.02;;;;;;;20.62;nan;100183.94;5007913;28;20621;-71
2022/07/27 03:49:51;;;;;;;21.05;15.85;;;;;;;20.65;nan;100244.09;5009197;28;20034;-70
2022/07/27 03:52:17;;;;;;;21.67;16.77;;;;;;;20.63;nan;100172.13;5012637;28;20092;-70
2022/07/27 03:54:42;;;;;;;22.52;16.33;;;;;;;20.65;nan;100171.84;5012646;28;20416;-70
2022/07/27 03:57:08;;;;;;;23.98;17.08;;;;;;;20.43;nan;100151.13;5009662;28;20580;-70
2022/07/27 03:59:33;;;;;;;25.25;17.45;;;;;;;20.49;nan;100157.94;5012254;28;20034;-70
2022/07/27 04:01:59;;;;;;;27.83;17.60;;;;;;;20.53;nan;100166.97;5012047;28;20053;-70
2022/07/27 04:04:24;;;;;;;29.85;17.65;;;;;;;;;;5010833;28;20041;-71
2022/07/27 04:06:49;;;;;;;23.50;17.27;;;;;;;20.54;nan;100172.03;5010090;28;20038;-70
2022/07/27 04:09:15;;;;;;;22.95;18.05;;;;;;;20.56;nan;100177.88;5012012;28;20780;-70
2022/07/27 04:11:42;;;;;;;22.92;16.98;;;;;;;20.50;nan;100133.56;5012534;28;20546;-71
2022/07/27 04:14:07;;;;;;;23.63;17.58;;;;;;;20.53;nan;100173.09;5007948;28;20038;-71
2022/07/27 04:16:33;;;;;;;23.35;17.73;;;;;;;20.51;nan;100153.09;5008377;28;20092;-71
2022/07/27 04:18:58;;;;;;;25.65;17.67;;;;;;;;;;5007559;28;20037;-71
2022/07/27 04:21:23;;;;;;;21.73;17.40;;;;;;;20.63;nan;100169.47;5005191;28;20511;-71
2022/07/27 04:23:49;;;;;;;23.98;17.90;;;;;;;20.64;nan;100188.97;5004550;28;20040;-72
2022/07/27 04:26:14;;;;;;;26.08;18.08;;;;;;;20.62;nan;100146.50;5010694;28;20522;-70
2022/07/27 04:28:41;;;;;;;22.40;17.60;;;;;;;20.75;nan;100179.66;5004095;28;20034;-70
2022/07/27 04:31:06;;;;;;;23.65;18.60;;;;;;;20.80;nan;100188.38;5007248;28;20041;-70
2022/07/27 04:33:32;;;;;;;23.42;17.50;;;;;;;20.79;nan;100188.69;5009440;28;20041;-71
2022/07/27 04:35:57;;;;;;;23.08;17.15;;;;;;;20.90;nan;100175.88;5011575;28;20061;-70
2022/07/27 04:38:22;;;;;;;24.65;18.10;;;;;;;;;;5010609;28;20388;-70
2022/07/27 04:40:48;;;;;;;25.67;17.25;;;;;;;21.18;nan;100185.47;5005551;28;20489;-72
2022/07/27 04:43:13;;;;;;;26.08;17.73;;;;;;;;;;5009448;28;20041;-70
2022/07/27 04:45:38;;;;;;;26.23;18.60;;;;;;;21.20;nan;100158.38;5013075;28;20416;-70
2022/07/27 04:48:08;;;;;;;23.95;17.50;;;;;;;21.32;nan;100190.00;5009076;28;20536;-69
2022/07/27 04:50:43;;;;;;;;;;;;;;;21.33;nan;100216.47;5008774;28;20128;-71
2022/07/27 04:53:09;;;;;;;24.60;17.83;;;;;;;21.32;nan;100252.38;5007123;28;19909;-71
2022/07/27 04:55:36;;;;;;;24.17;17.25;;;;;;;21.33;nan;100203.06;5011632;28;20042;-71
2022/07/27 04:58:02;;;;;;;24.08;17.27;;;;;;;21.38;nan;100205.66;5005797;28;20096;-71
2022/07/27 05:00:27;;;;;;;23.83;17.95;;;;;;;21.32;nan;100203.41;5009732;28;20042;-72
2022/07/27 05:02:53;;;;;;;22.40;17.90;;;;;;;21.34;nan;100172.53;5005548;28;20033;-71
2022/07/27 05:05:19;;;;;;;22.05;16.88;;;;;;;;;;5006574;28;20125;-72
2022/07/27 05:07:44;;;;;;;23.10;16.55;;;;;;;21.43;nan;100191.41;5005009;28;20129;-71
2022/07/27 05:10:10;;;;;;;27.58;17.83;;;;;;;21.49;nan;100229.56;5008970;28;20045;-67
2022/07/27 05:12:36;;;;;;;26.02;17.25;;;;;;;21.51;nan;100211.31;5012486;28;20030;-67
2022/07/27 05:15:02;;;;;;;20.50;17.08;;;;;;;21.53;nan;100206.44;5009284;28;20046;-71
2022/07/27 05:17:27;;;;;;;23.35;17.23;;;;;;;21.55;nan;100236.38;5008121;28;20071;-71
2022/07/27 05:19:53;;;;;;;22.52;16.95;;;;;;;21.59;nan;100210.56;5006508;28;20034;-72
2022/07/27 05:22:18;;;;;;;23.33;17.00;;;;;;;21.52;nan;100231.63;5007962;28;20038;-71
2022/07/27 05:24:44;;;;;;;22.00;17.30;;;;;;;21.55;nan;100239.88;5008896;28;20050;-71
2022/07/27 05:27:11;;;;;;;26.35;16.45;;;;;;;21.55;nan;100255.13;5008764;28;20050;-71
2022/07/27 05:29:36;;;;;;;25.60;16.27;;;;;;;21.55;nan;100288.09;5010986;28;20033;-71
2022/07/27 05:32:02;;;;;;;24.83;16.52;;;;;;;21.58;nan;100297.44;5010172;28;20038;-72
2022/07/27 05:34:27;;;;;;;24.90;15.98;;;;;;;21.72;nan;100235.75;5008723;28;20034;-73
2022/07/27 05:36:53;;;;;;;19.83;14.65;;;;;;;21.79;nan;100254.91;5007091;28;20033;-73
2022/07/27 05:39:18;;;;;;;19.48;12.95;;;;;;;21.86;nan;100247.19;5006911;28;20041;-68
2022/07/27 05:41:43;;;;;;;18.23;12.68;;;;;;;21.94;nan;100294.75;5010405;28;20029;-68
2022/07/27 05:44:09;;;;;;;18.50;12.50;;;;;;;21.97;nan;100229.00;5006913;28;20169;-72
2022/07/27 05:46:35;;;;;;;17.33;11.10;;;;;;;22.04;nan;100307.13;5005660;28;20045;-72
2022/07/27 05:49:01;;;;;;;15.82;10.85;;;;;;;22.06;nan;100241.34;5021319;28;20057;-71
2022/07/27 05:51:26;;;;;;;15.20;10.50;;;;;;;22.16;nan;100253.72;5004067;28;20076;-72
2022/07/27 05:53:51;;;;;;;16.63;9.88;;;;;;;22.23;nan;100235.34;5003761;28;20034;-73
2022/07/27 05:56:17;;;;;;;18.00;8.60;;;;;;;;;;5006902;28;20030;-72
2022/07/27 05:58:42;;;;;;;21.60;9.00;;;;;;;22.28;nan;100229.84;5005046;28;20038;-72
2022/07/27 06:01:07;;;;;;;8.95;7.85;;;;;;;;;;5006200;28;20050;-72
2022/07/27 06:03:33;;;;;;;11.20;6.90;;;;;;;22.47;nan;100231.53;5008105;28;20051;-73
2022/07/27 06:08:43;;;;;;;5.75;4.07;;;;;;;22.68;nan;100240.63;5006862;28;20042;-72
2022/07/27 06:11:09;;;;;;;5.22;3.97;;;;;;;22.69;nan;100282.44;5007873;28;20116;-72
2022/07/27 06:13:35;;;;;;;8.38;3.80;;;;;;;22.63;nan;100213.91;5006446;28;20408;-72
2022/07/27 06:16:02;;;;;;;4.95;3.92;;;;;;;22.70;nan;100275.22;5010139;28;20038;-73
2022/07/27 06:18:28;;;;;;;8.00;4.13;;;;;;;22.69;nan;100269.03;5006271;28;20167;-73
2022/07/27 06:20:53;;;;;;;6.07;4.40;;;;;;;22.79;nan;100253.75;5010558;28;20030;-72
2022/07/27 06:23:18;;;;;;;8.15;3.92;;;;;;;22.78;nan;100247.59;5007748;28;20400;-73
2022/07/27 06:25:44;;;;;;;7.55;4.18;;;;;;;22.91;nan;100194.88;5006178;28;20057;-72
2022/07/27 06:28:09;;;;;;;3.85;3.47;;;;;;;22.96;nan;100259.19;5006056;28;20032;-72
2022/07/27 06:30:34;;;;;;;8.32;3.78;;;;;;;23.01;nan;100251.03;5007606;28;20506;-72
2022/07/27 06:33:03;;;;;;;5.07;3.70;;;;;;;23.07;nan;100255.13;5001472;28;20037;-72
2022/07/27 06:35:29;;;;;;;6.53;3.63;;;;;;;23.10;nan;100259.09;5010394;28;20034;-71
2022/07/27 06:37:55;;;;;;;5.70;3.60;;;;;;;23.14;nan;100252.78;5006042;28;20049;-71
2022/07/27 06:40:20;;;;;;;4.05;3.22;;;;;;;23.23;nan;100249.34;5007430;28;20669;-72
2022/07/27 06:42:47;;;;;;;7.18;3.45;;;;;;;23.23;nan;100222.47;4999108;28;20034;-71
2022/07/27 06:45:12;;;;;;;5.22;3.40;;;;;;;23.26;nan;100259.44;5008085;28;20467;-72
2022/07/27 06:47:39;;;;;;;3.83;2.97;;;;;;;23.30;nan;100280.00;5001548;28;20046;-72
2022/07/27 06:50:05;;;;;;;4.10;3.20;;;;;;;23.33;nan;100284.75;5006453;28;20693;-72
2022/07/27 06:52:31;;;;;;;9.90;3.30;;;;;;;23.35;nan;100215.38;5006365;28;20037;-73
2022/07/27 06:54:56;;;;;;;7.13;3.00;;;;;;;23.50;nan;100227.53;5002922;28;20036;-73
2022/07/27 06:57:22;;;;;;;6.03;2.85;;;;;;;23.51;nan;100188.81;5008278;28;20543;-73
2022/07/27 06:59:49;;;;;;;9.88;2.75;;;;;;;23.56;nan;100230.88;5009038;28;20060;-73
2022/07/27 07:02:15;;;;;;;5.50;2.40;;;;;;;23.54;nan;100305.66;5004711;28;20424;-71
2022/07/27 07:04:41;;;;;;;5.57;2.55;;;;;;;23.62;nan;100226.13;5007852;28;20041;-72
2022/07/27 07:07:07;;;;;;;10.30;3.03;;;;;;;23.65;nan;100236.25;5009735;28;21657;-72
2022/07/27 07:09:32;;;;;;;3.63;2.50;;;;;;;23.70;nan;100250.31;5009266;28;20036;-73
2022/07/27 07:11:58;;;;;;;6.45;2.67;;;;;;;23.77;nan;100245.28;5007025;28;20484;-72
2022/07/27 07:14:24;;;;;;;7.40;3.10;;;;;;;;;;5008074;28;20141;-72
2022/07/27 07:16:50;;;;;;;4.95;2.30;;;;;;;23.82;nan;100246.22;5002777;28;20631;-72
2022/07/27 07:19:16;;;;;;;5.30;2.55;;;;;;;23.82;nan;100225.50;5006310;28;20160;-72
2022/07/27 07:21:41;;;;;;;7.15;2.83;;;;;;;;;;5010928;28;20033;-73
2022/07/27 07:24:07;;;;;;;4.57;3.00;;;;;;;23.98;nan;100244.63;5009302;28;20034;-72
2022/07/27 07:26:32;;;;;;;4.18;2.58;;;;;;;24.02;nan;100240.22;5008049;28;20122;-71
2022/07/27 07:28:58;;;;;;;2.45;2.25;;;;;;;24.01;nan;100232.44;5011308;28;20033;-72
2022/07/27 07:31:24;;;;;;;18.30;3.55;;;;;;;24.00;nan;100199.38;4977187;28;20045;-72
2022/07/27 07:33:49;;;;;;;6.38;2.63;;;;;;;24.10;nan;100184.81;5006443;28;20084;-72
2022/07/27 07:36:15;;;;;;;13.63;3.03;;;;;;;24.18;nan;100227.84;5012396;28;20136;-74
2022/07/27 07:38:42;;;;;;;13.95;2.78;;;;;;;24.25;nan;100215.78;5013310;28;20124;-73
2022/07/27 07:41:08;;;;;;;45.88;4.53;;;;;;;24.30;nan;100267.53;5011214;28;20037;-74
2022/07/27 07:43:35;;;;;;;15.65;2.85;;;;;;;24.38;nan;100249.78;5013332;28;20022;-73
2022/07/27 07:46:01;;;;;;;6.63;2.47;;;;;;;24.47;nan;100230.94;5013184;28;20029;-74
2022/07/27 07:48:27;;;;;;;20.58;4.07;;;;;;;24.58;nan;100224.09;5008002;28;20026;-74
2022/07/27 07:50:52;;;;;;;4.93;3.03;;;;;;;24.63;nan;100240.06;5008388;28;20026;-74
2022/07/27 07:53:18;;;;;;;4.13;2.40;;;;;;;24.66;nan;100228.63;5010905;28;20026;-73
2022/07/27 07:55:44;;;;;;;4.40;2.70;;;;;;;24.75;nan;100174.75;5004908;28;20045;-74
2022/07/27 07:58:09;;;;;;;5.00;2.72;;;;;;;24.70;nan;100232.25;5004361;28;20042;-73
2022/07/27 08:00:34;;;;;;;6.50;2.80;;;;;;;24.71;nan;100281.50;5007324;28;20532;-74
2022/07/27 08:03:00;;;;;;;19.30;3.47;;;;;;;24.78;nan;100236.03;5010074;28;20198;-74
2022/07/27 08:05:26;;;;;;;7.60;2.80;;;;;;;24.84;nan;100280.53;5008625;28;20033;-74
2022/07/27 08:07:52;;;;;;;5.40;2.65;;;;;;;24.91;nan;100226.94;5009944;28;20038;-72
2022/07/27 08:10:19;;;;;;;5.80;2.80;;;;;;;24.97;nan;100241.81;5007268;28;20064;-73
2022/07/27 08:12:48;;;;;;;4.82;2.90;;;;;;;25.01;nan;100178.06;5011057;28;20038;-74
2022/07/27 08:15:15;;;;;;;5.35;2.83;;;;;;;25.10;nan;100248.06;5010716;28;20042;-73
2022/07/27 08:17:41;;;;;;;6.95;3.15;;;;;;;25.07;nan;100246.03;5012669;28;20116;-74
2022/07/27 08:20:08;;;;;;;4.78;2.72;;;;;;;25.15;nan;100300.97;5013344;28;20033;-74
2022/07/27 08:22:34;;;;;;;4.25;2.70;;;;;;;25.18;nan;100241.84;5012770;28;20077;-73
2022/07/27 08:25:00;;;;;;;9.43;3.33;;;;;;;25.21;nan;100265.47;5011720;28;20053;-73
2022/07/27 08:27:25;;;;;;;7.20;2.58;;;;;;;25.22;nan;100245.47;5005746;28;20034;-74
2022/07/27 08:29:52;;;;;;;7.25;3.30;;;;;;;25.26;nan;100286.06;5009145;28;20123;-74
2022/07/27 08:32:18;;;;;;;3.72;2.60;;;;;;;25.34;nan;100262.84;5010942;28;20038;-74
2022/07/27 08:34:44;;;;;;;3.47;2.42;;;;;;;25.30;nan;100270.00;5012468;28;20041;-73
2022/07/27 08:37:09;;;;;;;8.55;2.60;;;;;;;25.32;nan;100268.56;5012471;28;20113;-73
2022/07/27 08:39:34;;;;;;;6.88;2.65;;;;;;;25.49;nan;100248.78;5011508;28;20112;-73
2022/07/27 08:42:05;;;;;;;5.20;2.70;;;;;;;25.56;nan;100267.13;5012877;28;20034;-73
2022/07/27 08:44:33;;;;;;;4.65;2.80;;;;;;;25.54;nan;100224.31;5009056;28;20030;-73
2022/07/27 08:47:00;;;;;;;4.35;2.80;;;;;;;;;;5010832;28;20365;-72
2022/07/27 08:49:28;;;;;;;4.50;2.67;;;;;;;25.62;nan;100250.44;5010798;28;20045;-72
2022/07/27 08:51:53;;;;;;;5.90;2.88;;;;;;;25.70;nan;100272.25;5013185;28;20030;-72
2022/07/27 08:54:19;;;;;;;6.60;2.60;;;;;;;25.75;nan;100266.66;5010024;28;20365;-72
2022/07/27 08:56:44;;;;;;;4.47;2.45;;;;;;;25.78;nan;100242.50;5013566;28;20084;-73
2022/07/27 08:59:10;;;;;;;3.97;2.28;;;;;;;25.81;nan;100311.19;5013992;28;20068;-73
2022/07/27 09:01:35;;;;;;;4.68;2.78;;;;;;;25.90;nan;100260.69;5009986;28;20792;-73
2022/07/27 09:04:01;;;;;;;5.57;2.50;;;;;;;25.95;nan;100295.53;5007777;28;20045;-73
2022/07/27 09:06:45;;;;;;;4.05;2.70;;;;;;;26.02;nan;100268.03;5010490;28;20038;-72
2022/07/27 09:09:12;;;;;;;3.75;2.63;;;;;;;26.15;nan;100244.59;5022556;28;20570;-71
2022/07/27 09:11:38;;;;;;;6.38;2.53;;;;;;;26.15;nan;100241.88;5007495;28;20045;-72
2022/07/27 09:14:06;;;;;;;7.80;2.88;;;;;;;26.26;nan;100281.59;5010692;28;20034;-72
2022/07/27 09:16:33;;;;;;;8.90;2.63;;;;;;;26.25;nan;100271.16;5006894;28;20065;-71
2022/07/27 09:19:07;;;;;;;5.32;2.90;;;;;;;26.27;nan;100242.69;5009499;28;20026;-73
2022/07/27 09:21:35;;;;;;;9.35;4.10;;;;;;;26.29;nan;100248.56;5003147;28;20030;-73
2022/07/27 09:24:10;;;;;;;4.60;2.90;;;;;;;26.44;nan;100268.72;5008748;28;20124;-72
2022/07/27 09:26:36;;;;;;;3.13;2.58;;;;;;;26.44;nan;100222.03;5006709;28;20045;-73
2022/07/27 09:29:11;;;;;;;3.72;2.55;;;;;;;26.48;nan;100261.53;5008541;28;20034;-73
2022/07/27 09:31:50;;;;;;;7.53;5.13;;;;;;;26.66;nan;100264.03;5006090;28;20037;-73
2022/07/27 09:34:32;;;;;;;5.38;3.80;;;;;;;26.79;nan;100284.53;5016521;28;20121;-72
2022/07/27 09:36:58;;;;;;;5.03;2.40;;;;;;;26.73;nan;100323.69;5002777;28;20045;-73
2022/07/27 09:39:26;;;;;;;8.00;2.60;;;;;;;26.73;nan;100273.16;5007739;28;20053;-70
2022/07/27 09:41:58;;;;;;;8.68;2.45;;;;;;;26.86;nan;100252.31;5008352;28;20029;-73
2022/07/27 09:44:35;;;;;;;3.80;2.58;;;;;;;26.94;nan;100291.97;5001360;28;20033;-73
2022/07/27 09:47:25;;;;;;;61.72;37.78;;;;;;;26.97;nan;100285.09;5013848;28;20034;-72
2022/07/27 09:49:51;;;;;;;9.60;6.50;;;;;;;27.07;nan;100241.38;5005153;28;20042;-72
2022/07/27 09:52:28;;;;;;;5.45;2.83;;;;;;;27.08;nan;100244.88;5007195;28;20116;-72
2022/07/27 09:55:00;;;;;;;3.95;2.70;;;;;;;27.10;nan;100248.03;5006475;28;20041;-73
2022/07/27 09:57:26;;;;;;;4.68;2.67;;;;;;;27.14;nan;100233.50;5007897;28;20042;-74
2022/07/27 10:00:12;;;;;;;6.05;3.00;;;;;;;27.20;nan;100227.88;5011418;28;20038;-72
2022/07/27 10:02:39;;;;;;;6.65;3.15;;;;;;;27.23;nan;100282.06;5008452;28;20038;-73
2022/07/27 10:05:06;;;;;;;4.80;2.80;;;;;;;27.22;nan;100237.22;5005200;28;20033;-71
2022/07/27 10:07:32;;;;;;;5.65;2.78;;;;;;;27.28;nan;100225.06;5008805;28;20026;-73
2022/07/27 10:09:57;;;;;;;4.35;3.28;;;;;;;27.32;nan;100231.38;5009017;28;20030;-72
2022/07/27 10:12:23;;;;;;;9.50;5.43;;;;;;;27.34;nan;100223.69;5007851;28;20082;-73
2022/07/27 10:14:48;;;;;;;7.45;3.80;;;;;;;27.46;nan;100211.25;5010466;28;20477;-71
2022/07/27 10:17:14;;;;;;;3.67;2.55;;;;;;;27.57;nan;100231.28;5010020;28;20033;-70
2022/07/27 10:19:46;;;;;;;5.88;2.50;;;;;;;27.54;nan;100213.81;5008525;28;20034;-73
2022/07/27 10:22:12;;;;;;;10.90;5.18;;;;;;;27.61;nan;100225.97;5007527;28;20121;-72
2022/07/27 10:24:38;;;;;;;6.85;3.13;;;;;;;27.74;nan;100217.44;5005379;28;20512;-71
2022/07/27 10:27:29;;;;;;;4.95;3.08;;;;;;;27.83;nan;100192.19;5009593;28;20091;-71
2022/07/27 10:29:56;;;;;;;5.28;3.10;;;;;;;27.89;nan;100228.69;5007684;28;20072;-74
2022/07/27 10:32:26;;;;;;;5.95;3.25;;;;;;;27.95;nan;100192.13;5006805;28;20072;-73
2022/07/27 10:34:52;;;;;;;7.28;3.83;;;;;;;27.98;nan;100194.13;5009816;28;20038;-73
2022/07/27 10:37:29;;;;;;;6.15;3.40;;;;;;;27.97;nan;100187.16;5009217;28;20136;-72
2022/07/27 10:42:46;;;;;;;3.65;2.92;;;;;;;28.17;nan;100188.03;5005574;28;20034;-74
2022/07/27 10:45:14;;;;;;;5.32;3.40;;;;;;;28.21;nan;100180.81;5007163;28;21350;-71
2022/07/27 10:47:42;;;;;;;4.35;3.00;;;;;;;28.21;nan;100197.03;5003341;28;20034;-73
2022/07/27 10:50:16;;;;;;;3.72;2.90;;;;;;;28.26;nan;100188.66;5008753;28;20369;-73
2022/07/27 10:52:46;;;;;;;5.25;3.28;;;;;;;28.42;nan;100196.75;5003621;28;20132;-73
2022/07/27 10:55:34;;;;;;;5.05;3.00;;;;;;;28.43;nan;100191.00;5005505;28;20034;-73
2022/07/27 10:58:02;;;;;;;10.48;3.22;;;;;;;28.53;nan;100203.25;5006207;28;20057;-73
2022/07/27 11:00:49;;;;;;;5.18;2.90;;;;;;;28.68;nan;100206.28;5007410;28;20128;-73
2022/07/27 11:03:36;;;;;;;10.35;2.70;;;;;;;28.73;nan;100204.13;5021748;28;20519;-73
2022/07/27 11:06:11;;;;;;;5.88;2.63;;;;;;;28.81;nan;100167.13;5008483;28;20030;-71
2022/07/27 11:08:41;;;;;;;6.72;2.90;;;;;;;28.75;nan;100190.97;5003634;28;20049;-71
2022/07/27 11:11:12;;;;;;;5.70;2.55;;;;;;;28.81;nan;100176.03;5007895;28;20033;-72
2022/07/27 11:13:37;;;;;;;5.97;2.85;;;;;;;28.81;nan;100175.25;5009342;28;20073;-72
2022/07/27 11:16:06;;;;;;;6.15;3.50;;;;;;;28.88;nan;100188.16;5008077;28;20507;-73
2022/07/27 11:18:34;;;;;;;7.05;2.92;;;;;;;28.92;nan;100154.56;5009490;28;20096;-73
2022/07/27 11:21:37;;;;;;;4.95;2.72;;;;;;;28.99;nan;100176.41;5006426;28;20034;-73
2022/07/27 11:24:10;;;;;;;4.43;2.55;;;;;;;29.00;nan;100207.03;4988245;28;20084;-73
2022/07/27 11:26:43;;;;;;;6.93;3.10;;;;;;;29.00;nan;100169.06;5006963;28;20038;-73
2022/07/27 11:29:10;;;;;;;5.75;2.78;;;;;;;29.13;nan;100199.56;5004695;28;20448;-73
2022/07/27 11:31:36;;;;;;;7.38;3.20;;;;;;;29.12;nan;100181.75;5007054;28;20041;-73
2022/07/27 11:34:03;;;;;;;3.83;2.75;;;;;;;29.22;nan;100179.25;5006639;28;20091;-71
2022/07/27 11:36:37;;;;;;;7.45;3.22;;;;;;;29.35;nan;100166.31;5006890;28;20064;-73
2022/07/27 11:39:06;;;;;;;5.10;3.03;;;;;;;29.41;nan;100161.41;5007397;28;20034;-73
2022/07/27 11:41:34;;;;;;;2.85;2.40;;;;;;;29.35;nan;100108.56;5010209;28;20046;-73
2022/07/27 11:44:09;;;;;;;2.77;2.00;;;;;;;29.36;nan;100169.84;5003375;28;20030;-73
2022/07/27 11:46:44;;;;;;;4.50;2.30;;;;;;;29.38;nan;100157.47;5006680;28;20282;-73